sensor_id;sensor_type;location;lat;lon;timestamp;temperature;humidity
3564;DHT22;1796;52.388;13.096;2023-12-07T00:00:29;0.50;99.90
3564;DHT22;1796;52.388;13.096;2023-12-07T00:02:58;0.40;99.90
3564;DHT22;1796;52.388;13.096;2023-12-07T00:05:28;0.50;99.90
3564;DHT22;1796;52.388;13.096;2023-12-07T00:07:56;0.50;99.90
3564;DHT22;1796;52.388;13.096;2023-12-07T00:10:23;0.50;99.90
3564;DHT22;1796;52.388;13.096;2023-12-07T00:12:52;0.60;99.90
3564;DHT22;1796;52.388;13.096;2023-12-07T00:15:18;0.50;99.90
3564;DHT22;1796;52.388;13.096;2023-12-07T00:17:45;0.50;99.90
3564;DHT22;1796;52.388;13.096;2023-12-07T00:20:12;0.50;99.90
3564;DHT22;1796;52.388;13.096;2023-12-07T00:22:39;0.50;99.90
3564;DHT22;1796;52.388;13.096;2023-12-07T00:25:08;0.50;99.90
3564;DHT22;1796;52.388;13.096;2023-12-07T00:27:35;0.50;99.90
3564;DHT22;1796;52.388;13.096;2023-12-07T00:30:02;0.50;99.90
3564;DHT22;1796;52.388;13.096;2023-12-07T00:32:29;0.50;99.90
3564;DHT22;1796;52.388;13.096;2023-12-07T00:34:56;0.50;99.90
3564;DHT22;1796;52.388;13.096;2023-12-07T00:37:23;0.50;99.90
3564;DHT22;1796;52.388;13.096;2023-12-07T00:39:50;0.50;99.90
3564;DHT22;1796;52.388;13.096;2023-12-07T00:42:18;0.50;99.90
3564;DHT22;1796;52.388;13.096;2023-12-07T00:44:45;0.50;99.90
3564;DHT22;1796;52.388;13.096;2023-12-07T00:47:11;0.50;99.90
3564;DHT22;1796;52.388;13.096;2023-12-07T00:49:38;0.50;99.90
3564;DHT22;1796;52.388;13.096;2023-12-07T00:52:06;0.50;99.90
3564;DHT22;1796;52.388;13.096;2023-12-07T00:54:33;0.50;99.90
3564;DHT22;1796;52.388;13.096;2023-12-07T00:57:00;0.50;99.90
3564;DHT22;1796;52.388;13.096;2023-12-07T00:59:28;0.50;99.90
3564;DHT22;1796;52.388;13.096;2023-12-07T01:01:59;0.50;99.90
3564;DHT22;1796;52.388;13.096;2023-12-07T01:04:26;0.50;99.90
3564;DHT22;1796;52.388;13.096;2023-12-07T01:06:53;0.50;99.90
3564;DHT22;1796;52.388;13.096;2023-12-07T01:09:20;0.50;99.90
3564;DHT22;1796;52.388;13.096;2023-12-07T01:11:47;0.40;99.90
3564;DHT22;1796;52.388;13.096;2023-12-07T01:14:14;0.50;99.90
3564;DHT22;1796;52.388;13.096;2023-12-07T01:16:42;0.50;99.90
3564;DHT22;1796;52.388;13.096;2023-12-07T01:19:10;0.50;99.90
3564;DHT22;1796;52.388;13.096;2023-12-07T01:21:39;0.50;99.90
3564;DHT22;1796;52.388;13.096;2023-12-07T01:24:06;0.50;99.90
3564;DHT22;1796;52.388;13.096;2023-12-07T01:26:33;0.50;99.90
3564;DHT22;1796;52.388;13.096;2023-12-07T01:29:00;0.50;99.90
3564;DHT22;1796;52.388;13.096;2023-12-07T01:31:28;0.50;99.90
3564;DHT22;1796;52.388;13.096;2023-12-07T01:33:56;0.60;99.90
3564;DHT22;1796;52.388;13.096;2023-12-07T01:36:23;0.50;99.90
3564;DHT22;1796;52.388;13.096;2023-12-07T01:38:50;0.50;99.90
3564;DHT22;1796;52.388;13.096;2023-12-07T01:41:17;0.50;99.90
3564;DHT22;1796;52.388;13.096;2023-12-07T01:43:45;0.50;99.90
3564;DHT22;1796;52.388;13.096;2023-12-07T01:46:12;0.50;99.90
3564;DHT22;1796;52.388;13.096;2023-12-07T01:48:39;0.50;99.90
3564;DHT22;1796;52.388;13.096;2023-12-07T01:51:08;0.50;99.90
3564;DHT22;1796;52.388;13.096;2023-12-07T01:53:35;0.50;99.90
3564;DHT22;1796;52.388;13.096;2023-12-07T01:56:04;0.50;99.90
3564;DHT22;1796;52.388;13.096;2023-12-07T01:58:32;0.50;99.90
3564;DHT22;1796;52.388;13.096;2023-12-07T02:00:59;0.50;99.90
3564;DHT22;1796;52.388;13.096;2023-12-07T02:03:27;0.50;99.90
3564;DHT22;1796;52.388;13.096;2023-12-07T02:05:55;0.50;99.90
3564;DHT22;1796;52.388;13.096;2023-12-07T02:08:25;0.50;99.90
3564;DHT22;1796;52.388;13.096;2023-12-07T02:10:52;0.50;99.90
3564;DHT22;1796;52.388;13.096;2023-12-07T02:13:19;0.50;99.90
3564;DHT22;1796;52.388;13.096;2023-12-07T02:15:47;0.50;99.90
3564;DHT22;1796;52.388;13.096;2023-12-07T02:18:18;0.50;99.90
3564;DHT22;1796;52.388;13.096;2023-12-07T02:20:48;0.50;99.90
3564;DHT22;1796;52.388;13.096;2023-12-07T02:23:18;0.50;99.90
3564;DHT22;1796;52.388;13.096;2023-12-07T02:25:51;0.50;99.90
3564;DHT22;1796;52.388;13.096;2023-12-07T02:28:20;0.50;99.90
3564;DHT22;1796;52.388;13.096;2023-12-07T02:30:47;0.50;99.90
3564;DHT22;1796;52.388;13.096;2023-12-07T02:33:14;0.50;99.90
3564;DHT22;1796;52.388;13.096;2023-12-07T02:35:41;0.50;99.90
3564;DHT22;1796;52.388;13.096;2023-12-07T02:38:08;0.50;99.90
3564;DHT22;1796;52.388;13.096;2023-12-07T02:40:35;0.50;99.90
3564;DHT22;1796;52.388;13.096;2023-12-07T02:43:03;0.50;99.90
3564;DHT22;1796;52.388;13.096;2023-12-07T02:45:32;0.50;99.90
3564;DHT22;1796;52.388;13.096;2023-12-07T02:47:59;0.50;99.90
3564;DHT22;1796;52.388;13.096;2023-12-07T02:50:26;0.50;99.90
3564;DHT22;1796;52.388;13.096;2023-12-07T02:52:53;0.50;99.90
3564;DHT22;1796;52.388;13.096;2023-12-07T02:55:22;0.50;99.90
3564;DHT22;1796;52.388;13.096;2023-12-07T02:57:49;0.50;99.90
3564;DHT22;1796;52.388;13.096;2023-12-07T03:00:17;0.60;99.90
3564;DHT22;1796;52.388;13.096;2023-12-07T03:02:45;0.50;99.90
3564;DHT22;1796;52.388;13.096;2023-12-07T03:05:13;0.50;99.90
3564;DHT22;1796;52.388;13.096;2023-12-07T03:07:40;0.50;99.90
3564;DHT22;1796;52.388;13.096;2023-12-07T03:10:07;0.50;99.90
3564;DHT22;1796;52.388;13.096;2023-12-07T03:12:34;0.50;99.90
3564;DHT22;1796;52.388;13.096;2023-12-07T03:15:01;0.50;99.90
3564;DHT22;1796;52.388;13.096;2023-12-07T03:17:28;0.50;99.90
3564;DHT22;1796;52.388;13.096;2023-12-07T03:19:56;0.50;99.90
3564;DHT22;1796;52.388;13.096;2023-12-07T03:22:23;0.60;99.90
3564;DHT22;1796;52.388;13.096;2023-12-07T03:24:51;0.60;99.90
3564;DHT22;1796;52.388;13.096;2023-12-07T03:27:19;0.50;99.90
3564;DHT22;1796;52.388;13.096;2023-12-07T03:29:46;0.50;99.90
3564;DHT22;1796;52.388;13.096;2023-12-07T03:32:13;0.60;99.90
3564;DHT22;1796;52.388;13.096;2023-12-07T03:34:40;0.60;99.90
3564;DHT22;1796;52.388;13.096;2023-12-07T03:37:08;0.60;99.90
3564;DHT22;1796;52.388;13.096;2023-12-07T03:39:35;0.60;99.90
3564;DHT22;1796;52.388;13.096;2023-12-07T03:42:02;0.60;99.90
3564;DHT22;1796;52.388;13.096;2023-12-07T03:44:29;0.60;99.90
3564;DHT22;1796;52.388;13.096;2023-12-07T03:46:56;0.60;99.90
3564;DHT22;1796;52.388;13.096;2023-12-07T03:49:23;0.60;99.90
3564;DHT22;1796;52.388;13.096;2023-12-07T03:51:50;0.60;99.90
3564;DHT22;1796;52.388;13.096;2023-12-07T03:54:18;0.60;99.90
3564;DHT22;1796;52.388;13.096;2023-12-07T03:56:45;0.60;99.90
3564;DHT22;1796;52.388;13.096;2023-12-07T03:59:12;0.60;99.90
3564;DHT22;1796;52.388;13.096;2023-12-07T04:01:39;0.60;99.90
3564;DHT22;1796;52.388;13.096;2023-12-07T04:04:06;0.60;99.90
3564;DHT22;1796;52.388;13.096;2023-12-07T04:06:32;0.60;99.90
3564;DHT22;1796;52.388;13.096;2023-12-07T04:08:59;0.60;99.90
3564;DHT22;1796;52.388;13.096;2023-12-07T04:11:27;0.60;99.90
3564;DHT22;1796;52.388;13.096;2023-12-07T04:13:54;0.60;99.90
3564;DHT22;1796;52.388;13.096;2023-12-07T04:16:21;0.70;99.90
3564;DHT22;1796;52.388;13.096;2023-12-07T04:18:49;0.60;99.90
3564;DHT22;1796;52.388;13.096;2023-12-07T04:21:15;0.60;99.90
3564;DHT22;1796;52.388;13.096;2023-12-07T04:23:42;0.60;99.90
3564;DHT22;1796;52.388;13.096;2023-12-07T04:26:09;0.60;99.90
3564;DHT22;1796;52.388;13.096;2023-12-07T04:28:37;0.60;99.90
3564;DHT22;1796;52.388;13.096;2023-12-07T04:31:04;0.60;99.90
3564;DHT22;1796;52.388;13.096;2023-12-07T04:33:31;0.70;99.90
3564;DHT22;1796;52.388;13.096;2023-12-07T04:35:59;0.60;99.90
3564;DHT22;1796;52.388;13.096;2023-12-07T04:38:25;0.60;99.90
3564;DHT22;1796;52.388;13.096;2023-12-07T04:40:52;0.60;99.90
3564;DHT22;1796;52.388;13.096;2023-12-07T04:43:19;0.60;99.90
3564;DHT22;1796;52.388;13.096;2023-12-07T04:45:47;0.60;99.90
3564;DHT22;1796;52.388;13.096;2023-12-07T04:48:14;0.50;99.90
3564;DHT22;1796;52.388;13.096;2023-12-07T04:50:41;0.60;99.90
3564;DHT22;1796;52.388;13.096;2023-12-07T04:53:08;0.60;99.90
3564;DHT22;1796;52.388;13.096;2023-12-07T04:55:35;0.60;99.90
3564;DHT22;1796;52.388;13.096;2023-12-07T04:58:02;0.60;99.90
3564;DHT22;1796;52.388;13.096;2023-12-07T05:00:29;0.60;99.90
3564;DHT22;1796;52.388;13.096;2023-12-07T05:02:57;0.60;99.90
3564;DHT22;1796;52.388;13.096;2023-12-07T05:05:24;0.60;99.90
3564;DHT22;1796;52.388;13.096;2023-12-07T05:07:50;0.60;99.90
3564;DHT22;1796;52.388;13.096;2023-12-07T05:10:17;0.60;99.90
3564;DHT22;1796;52.388;13.096;2023-12-07T05:12:44;0.60;99.90
3564;DHT22;1796;52.388;13.096;2023-12-07T05:15:11;0.60;99.90
3564;DHT22;1796;52.388;13.096;2023-12-07T05:17:38;0.60;99.90
3564;DHT22;1796;52.388;13.096;2023-12-07T05:20:07;0.60;99.90
3564;DHT22;1796;52.388;13.096;2023-12-07T05:22:34;0.60;99.90
3564;DHT22;1796;52.388;13.096;2023-12-07T05:25:01;0.60;99.90
3564;DHT22;1796;52.388;13.096;2023-12-07T05:27:28;0.60;99.90
3564;DHT22;1796;52.388;13.096;2023-12-07T05:29:55;0.60;99.90
3564;DHT22;1796;52.388;13.096;2023-12-07T05:32:22;0.60;99.90
3564;DHT22;1796;52.388;13.096;2023-12-07T05:34:49;0.60;99.90
3564;DHT22;1796;52.388;13.096;2023-12-07T05:37:17;0.60;99.90
3564;DHT22;1796;52.388;13.096;2023-12-07T05:39:44;0.60;99.90
3564;DHT22;1796;52.388;13.096;2023-12-07T05:42:11;0.60;99.90
3564;DHT22;1796;52.388;13.096;2023-12-07T05:44:38;0.60;99.90
3564;DHT22;1796;52.388;13.096;2023-12-07T05:47:04;0.60;99.90
3564;DHT22;1796;52.388;13.096;2023-12-07T05:49:33;0.60;99.90
3564;DHT22;1796;52.388;13.096;2023-12-07T05:52:00;0.60;99.90
3564;DHT22;1796;52.388;13.096;2023-12-07T05:54:29;0.60;99.90
3564;DHT22;1796;52.388;13.096;2023-12-07T05:56:57;0.60;99.90
3564;DHT22;1796;52.388;13.096;2023-12-07T05:59:24;0.60;99.90
3564;DHT22;1796;52.388;13.096;2023-12-07T06:01:51;0.60;99.90
3564;DHT22;1796;52.388;13.096;2023-12-07T06:04:19;0.60;99.90
3564;DHT22;1796;52.388;13.096;2023-12-07T06:06:46;0.60;99.90
3564;DHT22;1796;52.388;13.096;2023-12-07T06:09:13;0.60;99.90
3564;DHT22;1796;52.388;13.096;2023-12-07T06:11:41;0.60;99.90
3564;DHT22;1796;52.388;13.096;2023-12-07T06:14:08;0.60;99.90
3564;DHT22;1796;52.388;13.096;2023-12-07T06:16:35;0.60;99.90
3564;DHT22;1796;52.388;13.096;2023-12-07T06:19:02;0.70;99.90
3564;DHT22;1796;52.388;13.096;2023-12-07T06:21:29;0.60;99.90
3564;DHT22;1796;52.388;13.096;2023-12-07T06:23:56;0.60;99.90
3564;DHT22;1796;52.388;13.096;2023-12-07T06:26:25;0.70;99.90
3564;DHT22;1796;52.388;13.096;2023-12-07T06:28:53;0.70;99.90
3564;DHT22;1796;52.388;13.096;2023-12-07T06:31:20;0.60;99.90
3564;DHT22;1796;52.388;13.096;2023-12-07T06:33:47;0.70;99.90
3564;DHT22;1796;52.388;13.096;2023-12-07T06:36:18;0.70;99.90
3564;DHT22;1796;52.388;13.096;2023-12-07T06:38:46;0.70;99.90
3564;DHT22;1796;52.388;13.096;2023-12-07T06:41:13;0.70;99.90
3564;DHT22;1796;52.388;13.096;2023-12-07T06:43:40;0.70;99.90
3564;DHT22;1796;52.388;13.096;2023-12-07T06:46:11;0.70;99.90
3564;DHT22;1796;52.388;13.096;2023-12-07T06:48:38;0.70;99.90
3564;DHT22;1796;52.388;13.096;2023-12-07T06:51:05;0.70;99.90
3564;DHT22;1796;52.388;13.096;2023-12-07T06:53:31;0.70;99.90
3564;DHT22;1796;52.388;13.096;2023-12-07T06:55:58;0.70;99.90
3564;DHT22;1796;52.388;13.096;2023-12-07T06:58:25;0.70;99.90
3564;DHT22;1796;52.388;13.096;2023-12-07T07:00:52;0.70;99.90
3564;DHT22;1796;52.388;13.096;2023-12-07T07:03:20;0.70;99.90
3564;DHT22;1796;52.388;13.096;2023-12-07T07:05:47;0.70;99.90
3564;DHT22;1796;52.388;13.096;2023-12-07T07:08:14;0.70;99.90
3564;DHT22;1796;52.388;13.096;2023-12-07T07:10:41;0.70;99.90
3564;DHT22;1796;52.388;13.096;2023-12-07T07:13:08;0.70;99.90
3564;DHT22;1796;52.388;13.096;2023-12-07T07:15:35;0.70;99.90
3564;DHT22;1796;52.388;13.096;2023-12-07T07:18:02;0.70;99.90
3564;DHT22;1796;52.388;13.096;2023-12-07T07:20:30;0.70;99.90
3564;DHT22;1796;52.388;13.096;2023-12-07T07:22:57;0.80;99.90
3564;DHT22;1796;52.388;13.096;2023-12-07T07:25:24;0.70;99.90
3564;DHT22;1796;52.388;13.096;2023-12-07T07:27:50;0.70;99.90
3564;DHT22;1796;52.388;13.096;2023-12-07T07:30:20;0.70;99.90
3564;DHT22;1796;52.388;13.096;2023-12-07T07:32:46;0.80;99.90
3564;DHT22;1796;52.388;13.096;2023-12-07T07:35:14;0.80;99.90
3564;DHT22;1796;52.388;13.096;2023-12-07T07:37:43;0.80;99.90
3564;DHT22;1796;52.388;13.096;2023-12-07T07:40:11;0.80;99.90
3564;DHT22;1796;52.388;13.096;2023-12-07T07:42:38;0.80;99.90
3564;DHT22;1796;52.388;13.096;2023-12-07T07:45:07;0.90;99.90
3564;DHT22;1796;52.388;13.096;2023-12-07T07:47:34;0.90;99.90
3564;DHT22;1796;52.388;13.096;2023-12-07T07:50:01;0.90;99.90
3564;DHT22;1796;52.388;13.096;2023-12-07T07:52:31;0.90;99.90
3564;DHT22;1796;52.388;13.096;2023-12-07T07:55:00;0.90;99.90
3564;DHT22;1796;52.388;13.096;2023-12-07T07:57:27;0.90;99.90
3564;DHT22;1796;52.388;13.096;2023-12-07T07:59:53;0.90;99.90
3564;DHT22;1796;52.388;13.096;2023-12-07T08:02:20;0.90;99.90
3564;DHT22;1796;52.388;13.096;2023-12-07T08:04:47;0.90;99.90
3564;DHT22;1796;52.388;13.096;2023-12-07T08:07:14;1.00;99.90
3564;DHT22;1796;52.388;13.096;2023-12-07T08:09:41;1.00;99.90
3564;DHT22;1796;52.388;13.096;2023-12-07T08:12:09;1.00;99.90
3564;DHT22;1796;52.388;13.096;2023-12-07T08:14:36;0.90;99.90
3564;DHT22;1796;52.388;13.096;2023-12-07T08:17:03;1.00;99.90
3564;DHT22;1796;52.388;13.096;2023-12-07T08:19:31;0.90;99.90
3564;DHT22;1796;52.388;13.096;2023-12-07T08:21:58;1.00;99.90
3564;DHT22;1796;52.388;13.096;2023-12-07T08:24:25;1.00;99.90
3564;DHT22;1796;52.388;13.096;2023-12-07T08:26:52;1.10;99.90
3564;DHT22;1796;52.388;13.096;2023-12-07T08:29:20;1.10;99.90
3564;DHT22;1796;52.388;13.096;2023-12-07T08:31:47;1.10;99.90
3564;DHT22;1796;52.388;13.096;2023-12-07T08:34:14;1.10;99.90
3564;DHT22;1796;52.388;13.096;2023-12-07T08:36:40;1.10;99.90
3564;DHT22;1796;52.388;13.096;2023-12-07T08:39:07;1.20;99.90
3564;DHT22;1796;52.388;13.096;2023-12-07T08:41:35;1.20;99.90
3564;DHT22;1796;52.388;13.096;2023-12-07T08:44:02;1.30;99.90
3564;DHT22;1796;52.388;13.096;2023-12-07T08:46:30;1.10;99.90
3564;DHT22;1796;52.388;13.096;2023-12-07T08:48:57;1.20;99.90
3564;DHT22;1796;52.388;13.096;2023-12-07T08:51:24;1.20;99.90
3564;DHT22;1796;52.388;13.096;2023-12-07T08:53:51;1.20;99.90
3564;DHT22;1796;52.388;13.096;2023-12-07T08:56:18;1.20;99.90
3564;DHT22;1796;52.388;13.096;2023-12-07T08:58:45;1.10;99.90
3564;DHT22;1796;52.388;13.096;2023-12-07T09:01:12;1.20;99.90
3564;DHT22;1796;52.388;13.096;2023-12-07T09:03:40;1.10;99.90
3564;DHT22;1796;52.388;13.096;2023-12-07T09:06:07;1.20;99.90
3564;DHT22;1796;52.388;13.096;2023-12-07T09:08:34;1.20;99.90
3564;DHT22;1796;52.388;13.096;2023-12-07T09:11:01;1.20;99.90
3564;DHT22;1796;52.388;13.096;2023-12-07T09:13:29;1.30;99.90
3564;DHT22;1796;52.388;13.096;2023-12-07T09:15:56;1.20;99.90
3564;DHT22;1796;52.388;13.096;2023-12-07T09:18:24;1.20;99.90
3564;DHT22;1796;52.388;13.096;2023-12-07T09:20:52;1.20;99.90
3564;DHT22;1796;52.388;13.096;2023-12-07T09:23:19;1.30;99.90
3564;DHT22;1796;52.388;13.096;2023-12-07T09:25:46;1.30;99.90
3564;DHT22;1796;52.388;13.096;2023-12-07T09:28:13;1.40;99.90
3564;DHT22;1796;52.388;13.096;2023-12-07T09:30:39;1.30;99.90
3564;DHT22;1796;52.388;13.096;2023-12-07T09:33:06;1.40;99.90
3564;DHT22;1796;52.388;13.096;2023-12-07T09:35:33;1.40;99.90
3564;DHT22;1796;52.388;13.096;2023-12-07T09:38:02;1.40;99.90
3564;DHT22;1796;52.388;13.096;2023-12-07T09:40:31;1.50;99.90
3564;DHT22;1796;52.388;13.096;2023-12-07T09:42:58;1.40;99.90
3564;DHT22;1796;52.388;13.096;2023-12-07T09:45:25;1.40;99.90
3564;DHT22;1796;52.388;13.096;2023-12-07T09:47:53;1.40;99.90
3564;DHT22;1796;52.388;13.096;2023-12-07T09:50:21;1.50;99.90
3564;DHT22;1796;52.388;13.096;2023-12-07T09:52:49;1.50;99.90
3564;DHT22;1796;52.388;13.096;2023-12-07T09:55:18;1.50;99.90
3564;DHT22;1796;52.388;13.096;2023-12-07T09:57:46;1.40;99.90
3564;DHT22;1796;52.388;13.096;2023-12-07T10:00:13;1.40;99.90
3564;DHT22;1796;52.388;13.096;2023-12-07T10:02:41;1.40;99.90
3564;DHT22;1796;52.388;13.096;2023-12-07T10:05:10;1.50;99.90
3564;DHT22;1796;52.388;13.096;2023-12-07T10:07:40;1.50;99.90
3564;DHT22;1796;52.388;13.096;2023-12-07T10:10:08;1.40;99.90
3564;DHT22;1796;52.388;13.096;2023-12-07T10:12:45;1.50;99.90
3564;DHT22;1796;52.388;13.096;2023-12-07T10:15:13;1.50;99.90
3564;DHT22;1796;52.388;13.096;2023-12-07T10:17:46;1.50;99.90
3564;DHT22;1796;52.388;13.096;2023-12-07T10:20:15;1.50;99.90
3564;DHT22;1796;52.388;13.096;2023-12-07T10:22:42;1.40;99.90
3564;DHT22;1796;52.388;13.096;2023-12-07T10:25:10;1.60;99.90
3564;DHT22;1796;52.388;13.096;2023-12-07T10:27:40;1.60;99.90
3564;DHT22;1796;52.388;13.096;2023-12-07T10:30:09;1.70;99.90
3564;DHT22;1796;52.388;13.096;2023-12-07T10:32:38;1.60;99.90
3564;DHT22;1796;52.388;13.096;2023-12-07T10:35:07;1.60;99.90
3564;DHT22;1796;52.388;13.096;2023-12-07T10:37:34;1.50;99.90
3564;DHT22;1796;52.388;13.096;2023-12-07T10:40:02;1.60;99.90
3564;DHT22;1796;52.388;13.096;2023-12-07T10:42:33;1.60;99.90
3564;DHT22;1796;52.388;13.096;2023-12-07T10:45:05;1.70;99.90
3564;DHT22;1796;52.388;13.096;2023-12-07T10:47:35;1.70;99.90
3564;DHT22;1796;52.388;13.096;2023-12-07T10:50:05;1.70;99.90
3564;DHT22;1796;52.388;13.096;2023-12-07T10:52:37;1.70;99.90
3564;DHT22;1796;52.388;13.096;2023-12-07T10:55:08;1.70;99.90
3564;DHT22;1796;52.388;13.096;2023-12-07T10:57:37;1.70;99.90
3564;DHT22;1796;52.388;13.096;2023-12-07T11:00:07;1.60;99.90
3564;DHT22;1796;52.388;13.096;2023-12-07T11:02:35;1.60;99.90
3564;DHT22;1796;52.388;13.096;2023-12-07T11:05:03;1.60;99.90
3564;DHT22;1796;52.388;13.096;2023-12-07T11:07:41;1.60;99.90
3564;DHT22;1796;52.388;13.096;2023-12-07T11:10:14;1.50;99.90
3564;DHT22;1796;52.388;13.096;2023-12-07T11:12:48;1.50;99.90
3564;DHT22;1796;52.388;13.096;2023-12-07T11:15:18;1.50;99.90
3564;DHT22;1796;52.388;13.096;2023-12-07T11:17:53;1.50;99.90
3564;DHT22;1796;52.388;13.096;2023-12-07T11:20:21;1.60;99.90
3564;DHT22;1796;52.388;13.096;2023-12-07T11:22:49;1.60;99.90
3564;DHT22;1796;52.388;13.096;2023-12-07T11:25:17;1.60;99.90
3564;DHT22;1796;52.388;13.096;2023-12-07T11:27:45;1.60;99.90
3564;DHT22;1796;52.388;13.096;2023-12-07T11:30:14;1.70;99.90
3564;DHT22;1796;52.388;13.096;2023-12-07T11:32:43;1.60;99.90
3564;DHT22;1796;52.388;13.096;2023-12-07T11:35:13;1.60;99.90
3564;DHT22;1796;52.388;13.096;2023-12-07T11:38:00;1.50;99.90
3564;DHT22;1796;52.388;13.096;2023-12-07T11:40:26;1.50;99.90
3564;DHT22;1796;52.388;13.096;2023-12-07T11:42:52;1.50;99.90
3564;DHT22;1796;52.388;13.096;2023-12-07T11:45:37;1.50;99.90
3564;DHT22;1796;52.388;13.096;2023-12-07T11:48:13;1.50;99.90
3564;DHT22;1796;52.388;13.096;2023-12-07T11:50:57;1.50;99.90
3564;DHT22;1796;52.388;13.096;2023-12-07T11:53:26;1.70;99.90
3564;DHT22;1796;52.388;13.096;2023-12-07T11:55:53;1.70;99.90
3564;DHT22;1796;52.388;13.096;2023-12-07T11:58:21;1.70;99.90
3564;DHT22;1796;52.388;13.096;2023-12-07T12:00:47;1.60;99.90
3564;DHT22;1796;52.388;13.096;2023-12-07T12:03:16;1.60;99.90
3564;DHT22;1796;52.388;13.096;2023-12-07T12:05:42;1.60;99.90
3564;DHT22;1796;52.388;13.096;2023-12-07T12:08:09;1.70;99.90
3564;DHT22;1796;52.388;13.096;2023-12-07T12:10:37;1.70;99.90
3564;DHT22;1796;52.388;13.096;2023-12-07T12:13:04;1.70;99.90
3564;DHT22;1796;52.388;13.096;2023-12-07T12:15:31;1.70;99.90
3564;DHT22;1796;52.388;13.096;2023-12-07T12:17:59;1.80;99.90
3564;DHT22;1796;52.388;13.096;2023-12-07T12:20:28;1.70;99.90
3564;DHT22;1796;52.388;13.096;2023-12-07T12:22:55;1.80;99.90
3564;DHT22;1796;52.388;13.096;2023-12-07T12:25:23;1.80;99.90
3564;DHT22;1796;52.388;13.096;2023-12-07T12:27:53;1.70;99.90
3564;DHT22;1796;52.388;13.096;2023-12-07T12:30:20;1.70;99.90
3564;DHT22;1796;52.388;13.096;2023-12-07T12:32:48;1.80;99.90
3564;DHT22;1796;52.388;13.096;2023-12-07T12:35:16;1.80;99.90
3564;DHT22;1796;52.388;13.096;2023-12-07T12:37:45;1.80;99.90
3564;DHT22;1796;52.388;13.096;2023-12-07T12:40:16;1.80;99.90
3564;DHT22;1796;52.388;13.096;2023-12-07T12:42:44;1.80;99.90
3564;DHT22;1796;52.388;13.096;2023-12-07T12:45:12;1.80;99.90
3564;DHT22;1796;52.388;13.096;2023-12-07T12:47:39;1.80;99.90
3564;DHT22;1796;52.388;13.096;2023-12-07T12:50:07;1.80;99.90
3564;DHT22;1796;52.388;13.096;2023-12-07T12:52:34;1.80;99.90
3564;DHT22;1796;52.388;13.096;2023-12-07T12:55:07;1.90;99.90
3564;DHT22;1796;52.388;13.096;2023-12-07T12:57:35;1.90;99.90
3564;DHT22;1796;52.388;13.096;2023-12-07T13:00:04;1.80;99.90
3564;DHT22;1796;52.388;13.096;2023-12-07T13:02:32;1.80;99.90
3564;DHT22;1796;52.388;13.096;2023-12-07T13:04:59;1.90;99.90
3564;DHT22;1796;52.388;13.096;2023-12-07T13:07:26;1.90;99.90
3564;DHT22;1796;52.388;13.096;2023-12-07T13:09:53;1.90;99.90
3564;DHT22;1796;52.388;13.096;2023-12-07T13:12:21;1.90;99.90
3564;DHT22;1796;52.388;13.096;2023-12-07T13:14:49;1.90;99.90
3564;DHT22;1796;52.388;13.096;2023-12-07T13:17:15;1.80;99.90
3564;DHT22;1796;52.388;13.096;2023-12-07T13:19:43;1.80;99.90
3564;DHT22;1796;52.388;13.096;2023-12-07T13:22:10;1.80;99.90
3564;DHT22;1796;52.388;13.096;2023-12-07T13:24:37;1.80;99.90
3564;DHT22;1796;52.388;13.096;2023-12-07T13:27:04;1.90;99.90
3564;DHT22;1796;52.388;13.096;2023-12-07T13:29:32;1.80;99.90
3564;DHT22;1796;52.388;13.096;2023-12-07T13:31:59;1.80;99.90
3564;DHT22;1796;52.388;13.096;2023-12-07T13:34:26;1.90;99.90
3564;DHT22;1796;52.388;13.096;2023-12-07T13:36:53;1.80;99.90
3564;DHT22;1796;52.388;13.096;2023-12-07T13:39:20;1.90;99.90
3564;DHT22;1796;52.388;13.096;2023-12-07T13:41:47;1.90;99.90
3564;DHT22;1796;52.388;13.096;2023-12-07T13:44:15;1.90;99.90
3564;DHT22;1796;52.388;13.096;2023-12-07T13:46:45;1.80;99.90
3564;DHT22;1796;52.388;13.096;2023-12-07T13:49:12;1.80;99.90
3564;DHT22;1796;52.388;13.096;2023-12-07T13:51:40;1.80;99.90
3564;DHT22;1796;52.388;13.096;2023-12-07T13:54:07;1.80;99.90
3564;DHT22;1796;52.388;13.096;2023-12-07T13:56:34;1.90;99.90
3564;DHT22;1796;52.388;13.096;2023-12-07T13:59:01;1.80;99.90
3564;DHT22;1796;52.388;13.096;2023-12-07T14:01:28;1.80;99.90
3564;DHT22;1796;52.388;13.096;2023-12-07T14:03:58;1.90;99.90
3564;DHT22;1796;52.388;13.096;2023-12-07T14:06:27;1.80;99.90
3564;DHT22;1796;52.388;13.096;2023-12-07T14:08:54;1.80;99.90
3564;DHT22;1796;52.388;13.096;2023-12-07T14:11:21;1.80;99.90
3564;DHT22;1796;52.388;13.096;2023-12-07T14:13:48;1.80;99.90
3564;DHT22;1796;52.388;13.096;2023-12-07T14:16:19;1.80;99.90
3564;DHT22;1796;52.388;13.096;2023-12-07T14:18:46;1.80;99.90
3564;DHT22;1796;52.388;13.096;2023-12-07T14:21:20;1.80;99.90
3564;DHT22;1796;52.388;13.096;2023-12-07T14:23:47;1.80;99.90
3564;DHT22;1796;52.388;13.096;2023-12-07T14:26:14;1.80;99.90
3564;DHT22;1796;52.388;13.096;2023-12-07T14:28:40;1.80;99.90
3564;DHT22;1796;52.388;13.096;2023-12-07T14:31:07;1.80;99.90
3564;DHT22;1796;52.388;13.096;2023-12-07T14:33:39;1.80;99.90
3564;DHT22;1796;52.388;13.096;2023-12-07T14:36:09;1.80;99.90
3564;DHT22;1796;52.388;13.096;2023-12-07T14:38:38;1.80;99.90
3564;DHT22;1796;52.388;13.096;2023-12-07T14:41:05;1.90;99.90
3564;DHT22;1796;52.388;13.096;2023-12-07T14:43:32;1.80;99.90
3564;DHT22;1796;52.388;13.096;2023-12-07T14:45:59;1.90;99.90
3564;DHT22;1796;52.388;13.096;2023-12-07T14:48:27;1.80;99.90
3564;DHT22;1796;52.388;13.096;2023-12-07T14:50:54;1.80;99.90
3564;DHT22;1796;52.388;13.096;2023-12-07T14:53:21;1.80;99.90
3564;DHT22;1796;52.388;13.096;2023-12-07T14:55:52;1.80;99.90
3564;DHT22;1796;52.388;13.096;2023-12-07T14:58:19;1.80;99.90
3564;DHT22;1796;52.388;13.096;2023-12-07T15:00:46;1.70;99.90
3564;DHT22;1796;52.388;13.096;2023-12-07T15:03:13;1.70;99.90
3564;DHT22;1796;52.388;13.096;2023-12-07T15:05:40;1.70;99.90
3564;DHT22;1796;52.388;13.096;2023-12-07T15:08:07;1.60;99.90
3564;DHT22;1796;52.388;13.096;2023-12-07T15:10:35;1.60;99.90
3564;DHT22;1796;52.388;13.096;2023-12-07T15:13:04;1.60;99.90
3564;DHT22;1796;52.388;13.096;2023-12-07T15:15:32;1.60;99.90
3564;DHT22;1796;52.388;13.096;2023-12-07T15:17:59;1.60;99.90
3564;DHT22;1796;52.388;13.096;2023-12-07T15:20:26;1.60;99.90
3564;DHT22;1796;52.388;13.096;2023-12-07T15:22:53;1.60;99.90
3564;DHT22;1796;52.388;13.096;2023-12-07T15:25:20;1.60;99.90
3564;DHT22;1796;52.388;13.096;2023-12-07T15:27:48;1.60;99.90
3564;DHT22;1796;52.388;13.096;2023-12-07T15:30:16;1.60;99.90
3564;DHT22;1796;52.388;13.096;2023-12-07T15:32:43;1.60;99.90
3564;DHT22;1796;52.388;13.096;2023-12-07T15:35:10;1.60;99.90
3564;DHT22;1796;52.388;13.096;2023-12-07T15:37:37;1.60;99.90
3564;DHT22;1796;52.388;13.096;2023-12-07T15:40:05;1.50;99.90
3564;DHT22;1796;52.388;13.096;2023-12-07T15:42:35;1.50;99.90
3564;DHT22;1796;52.388;13.096;2023-12-07T15:45:03;1.50;99.90
3564;DHT22;1796;52.388;13.096;2023-12-07T15:47:32;1.50;99.90
3564;DHT22;1796;52.388;13.096;2023-12-07T15:49:59;1.50;99.90
3564;DHT22;1796;52.388;13.096;2023-12-07T15:52:26;1.50;99.90
3564;DHT22;1796;52.388;13.096;2023-12-07T15:54:53;1.50;99.90
3564;DHT22;1796;52.388;13.096;2023-12-07T15:57:20;1.50;99.90
3564;DHT22;1796;52.388;13.096;2023-12-07T15:59:47;1.50;99.90
3564;DHT22;1796;52.388;13.096;2023-12-07T16:02:14;1.50;99.90
3564;DHT22;1796;52.388;13.096;2023-12-07T16:04:43;1.50;99.90